createdAt,value
2022-11-15T00:00:31.687Z,98604.00
2022-11-15T00:03:25.068Z,98600.00
2022-11-15T00:06:13.366Z,98603.00
2022-11-15T00:09:02.036Z,98595.00
2022-11-15T00:11:49.482Z,98602.00
2022-11-15T00:14:36.992Z,98600.00
2022-11-15T00:17:24.469Z,98593.00
2022-11-15T00:20:12.648Z,98585.00
2022-11-15T00:23:00.112Z,98588.00
2022-11-15T00:25:47.740Z,98598.00
2022-11-15T00:28:35.246Z,98596.00
2022-11-15T00:31:22.712Z,98594.00
2022-11-15T00:34:11.726Z,98599.00
2022-11-15T00:36:59.235Z,98602.00
2022-11-15T00:39:46.687Z,98601.00
2022-11-15T00:42:34.108Z,98598.00
2022-11-15T00:45:21.630Z,98585.00
2022-11-15T00:48:10.813Z,98585.00
2022-11-15T00:50:58.913Z,98577.00
2022-11-15T00:53:46.387Z,98591.00
2022-11-15T00:56:33.832Z,98582.00
2022-11-15T00:59:21.367Z,98588.00
2022-11-15T01:02:08.872Z,98589.00
2022-11-15T01:04:56.372Z,98589.00
2022-11-15T01:07:43.992Z,98592.00
2022-11-15T01:10:31.431Z,98600.00
2022-11-15T01:13:18.998Z,98594.00
2022-11-15T01:16:18.591Z,98590.00
2022-11-15T01:19:06.062Z,98584.00
2022-11-15T01:21:53.533Z,98581.00
2022-11-15T01:24:41.002Z,98583.00
2022-11-15T01:27:28.418Z,98574.00
2022-11-15T01:30:16.402Z,98576.00
2022-11-15T01:33:03.902Z,98580.00
2022-11-15T01:35:51.371Z,98578.00
2022-11-15T01:38:39.262Z,98567.00
2022-11-15T01:41:33.795Z,98566.00
2022-11-15T01:44:51.860Z,98569.00
2022-11-15T01:47:46.357Z,98553.00
2022-11-15T01:50:34.597Z,98547.00
2022-11-15T01:53:26.633Z,98542.00
2022-11-15T01:56:21.114Z,98541.00
2022-11-15T01:59:11.266Z,98537.00
2022-11-15T02:01:58.977Z,98546.00
2022-11-15T02:04:49.271Z,98547.00
2022-11-15T02:07:38.691Z,98543.00
2022-11-15T02:10:26.823Z,98539.00
2022-11-15T02:13:17.560Z,98537.00
2022-11-15T02:16:23.953Z,98535.00
2022-11-15T02:19:33.271Z,98534.00
2022-11-15T02:22:59.002Z,98519.00
2022-11-15T02:26:24.112Z,98519.00
2022-11-15T02:29:53.264Z,98521.00
2022-11-15T02:33:23.092Z,98514.00
2022-11-15T02:37:08.171Z,98526.00
2022-11-15T02:40:27.961Z,98538.00
2022-11-15T02:43:47.147Z,98536.00
2022-11-15T02:47:11.441Z,98537.00
2022-11-15T02:50:07.605Z,98529.00
2022-11-15T02:52:55.567Z,98523.00
2022-11-15T02:55:51.581Z,98525.00
2022-11-15T02:59:21.102Z,98518.00
2022-11-15T03:02:27.087Z,98520.00
2022-11-15T03:05:23.392Z,98517.00
2022-11-15T03:08:52.361Z,98507.00
2022-11-15T03:11:49.271Z,98502.00
2022-11-15T03:14:57.365Z,98493.00
2022-11-15T03:17:59.659Z,98490.00
2022-11-15T03:20:50.286Z,98493.00
2022-11-15T03:23:40.605Z,98487.00
2022-11-15T03:26:31.228Z,98481.00
2022-11-15T03:29:25.921Z,98483.00
2022-11-15T03:32:21.482Z,98484.00
2022-11-15T03:35:29.023Z,98476.00
2022-11-15T03:38:27.278Z,98486.00
2022-11-15T03:41:32.769Z,98493.00
2022-11-15T03:45:10.451Z,98476.00
2022-11-15T03:48:16.302Z,98472.00
2022-11-15T03:51:06.165Z,98475.00
2022-11-15T03:53:53.836Z,98475.00
2022-11-15T03:56:41.612Z,98474.00
2022-11-15T03:59:29.180Z,98470.00
2022-11-15T04:02:17.276Z,98467.00
2022-11-15T04:05:05.805Z,98459.00
2022-11-15T04:07:53.480Z,98459.00
2022-11-15T04:10:41.327Z,98465.00
2022-11-15T04:13:29.043Z,98471.00
2022-11-15T04:16:16.874Z,98461.00
2022-11-15T04:19:23.282Z,98459.00
2022-11-15T04:22:29.518Z,98459.00
2022-11-15T04:25:20.666Z,98456.00
2022-11-15T04:28:12.469Z,98454.00
2022-11-15T04:31:00.447Z,98451.00
2022-11-15T04:33:48.068Z,98442.00
2022-11-15T04:36:54.096Z,98435.00
2022-11-15T04:39:43.872Z,98437.00
2022-11-15T04:42:31.347Z,98438.00
2022-11-15T04:45:19.258Z,98436.00
2022-11-15T04:48:06.737Z,98440.00
2022-11-15T04:50:54.221Z,98440.00
2022-11-15T04:53:41.732Z,98437.00
2022-11-15T04:56:29.205Z,98433.00
2022-11-15T04:59:16.671Z,98428.00
2022-11-15T05:02:04.265Z,98431.00
2022-11-15T05:04:51.737Z,98432.00
2022-11-15T05:07:39.241Z,98432.00
2022-11-15T05:10:26.667Z,98422.00
2022-11-15T05:13:14.306Z,98419.00
2022-11-15T05:16:01.870Z,98426.00
2022-11-15T05:18:53.895Z,98414.00
2022-11-15T05:21:41.940Z,98412.00
2022-11-15T05:24:29.380Z,98412.00
2022-11-15T05:27:17.022Z,98410.00
2022-11-15T05:30:04.827Z,98406.00
2022-11-15T05:32:52.310Z,98405.00
2022-11-15T05:35:50.160Z,98404.00
2022-11-15T05:38:38.195Z,98393.00
2022-11-15T05:41:36.770Z,98390.00
2022-11-15T05:44:27.429Z,98392.00
2022-11-15T05:47:27.396Z,98390.00
2022-11-15T05:50:19.171Z,98397.00
2022-11-15T05:53:07.531Z,98396.00
2022-11-15T05:55:55.176Z,98391.00
2022-11-15T05:58:44.385Z,98403.00
2022-11-15T06:01:32.080Z,98398.00
2022-11-15T06:04:19.595Z,98401.00
2022-11-15T06:07:07.135Z,98406.00
2022-11-15T06:09:54.689Z,98396.00
2022-11-15T06:12:42.141Z,98400.00
2022-11-15T06:15:30.046Z,98398.00
2022-11-15T06:18:17.476Z,98402.00
2022-11-15T06:21:05.632Z,98396.00
2022-11-15T06:23:53.096Z,98387.00
2022-11-15T06:26:40.547Z,98392.00
2022-11-15T06:29:28.008Z,98389.00
2022-11-15T06:32:15.495Z,98396.00
2022-11-15T06:35:03.151Z,98396.00
2022-11-15T06:37:50.594Z,98391.00
2022-11-15T06:40:40.796Z,98391.00
2022-11-15T06:43:28.351Z,98399.00
2022-11-15T06:46:15.899Z,98401.00
2022-11-15T06:49:09.287Z,98396.00
2022-11-15T06:51:57.416Z,98394.00
2022-11-15T06:54:45.427Z,98395.00
2022-11-15T06:57:33.422Z,98410.00
2022-11-15T07:00:24.431Z,98411.00
2022-11-15T07:03:12.256Z,98411.00
2022-11-15T07:06:05.715Z,98413.00
2022-11-15T07:08:54.581Z,98409.00
2022-11-15T07:11:43.386Z,98410.00
2022-11-15T07:14:30.776Z,98413.00
2022-11-15T07:17:18.227Z,98418.00
2022-11-15T07:20:06.513Z,98400.00
2022-11-15T07:23:05.349Z,98402.00
2022-11-15T07:25:52.917Z,98408.00
2022-11-15T07:28:40.676Z,98407.00
2022-11-15T07:31:28.538Z,98406.00
2022-11-15T07:34:15.966Z,98414.00
2022-11-15T07:37:03.465Z,98396.00
2022-11-15T07:39:50.933Z,98402.00
2022-11-15T07:42:53.685Z,98396.00
2022-11-15T07:45:46.525Z,98399.00
2022-11-15T07:48:43.232Z,98404.00
2022-11-15T07:51:31.977Z,98398.00
2022-11-15T07:54:19.455Z,98392.00
2022-11-15T07:57:08.621Z,98390.00
2022-11-15T07:59:56.197Z,98385.00
2022-11-15T08:02:44.380Z,98384.00
2022-11-15T08:05:33.221Z,98380.00
2022-11-15T08:08:20.727Z,98383.00
2022-11-15T08:11:08.227Z,98392.00
2022-11-15T08:13:55.752Z,98385.00
2022-11-15T08:16:43.234Z,98387.00
2022-11-15T08:19:30.691Z,98373.00
2022-11-15T08:22:19.043Z,98372.00
2022-11-15T08:25:06.789Z,98367.00
2022-11-15T08:27:57.185Z,98378.00
2022-11-15T08:30:46.493Z,98375.00
2022-11-15T08:33:37.008Z,98378.00
2022-11-15T08:36:24.451Z,98374.00
2022-11-15T08:39:13.716Z,98372.00
2022-11-15T08:42:01.348Z,98374.00
2022-11-15T08:44:48.816Z,98363.00
2022-11-15T08:47:36.347Z,98362.00
2022-11-15T08:50:24.379Z,98375.00
2022-11-15T08:53:13.809Z,98370.00
2022-11-15T08:56:01.586Z,98363.00
2022-11-15T08:58:49.072Z,98366.00
2022-11-15T09:01:36.604Z,98370.00
2022-11-15T09:04:24.291Z,98374.00
2022-11-15T09:07:12.956Z,98370.00
2022-11-15T09:10:01.233Z,98370.00
2022-11-15T09:12:51.697Z,98366.00
2022-11-15T09:15:39.204Z,98364.00
2022-11-15T09:18:26.843Z,98358.00
2022-11-15T09:21:15.163Z,98364.00
2022-11-15T09:24:03.422Z,98363.00
2022-11-15T09:26:52.517Z,98361.00
2022-11-15T09:29:40.078Z,98362.00
2022-11-15T09:32:35.016Z,98355.00
2022-11-15T09:35:26.417Z,98353.00
2022-11-15T09:38:13.914Z,98358.00
2022-11-15T09:41:15.829Z,98358.00
2022-11-15T09:44:42.293Z,98356.00
2022-11-15T09:47:52.692Z,98350.00
2022-11-15T09:51:01.340Z,98351.00
2022-11-15T09:57:17.447Z,98351.00
2022-11-15T10:00:48.339Z,98347.00
2022-11-15T10:03:43.302Z,98341.00
2022-11-15T10:06:35.918Z,98340.00
2022-11-15T10:09:33.187Z,98338.00
2022-11-15T10:12:20.788Z,98330.00
2022-11-15T10:15:16.908Z,98322.00
2022-11-15T10:18:17.912Z,98318.00
2022-11-15T10:21:21.654Z,98307.00
2022-11-15T10:24:16.982Z,98308.00
2022-11-15T10:27:18.868Z,98301.00
2022-11-15T10:30:15.058Z,98292.00
2022-11-15T10:33:34.931Z,98278.00
2022-11-15T10:36:27.652Z,98274.00
2022-11-15T10:39:15.536Z,98266.00
2022-11-15T10:42:29.620Z,98261.00
2022-11-15T10:45:29.945Z,98256.00
2022-11-15T10:48:25.471Z,98246.00
2022-11-15T10:51:30.972Z,98244.00
2022-11-15T10:54:44.482Z,98241.00
2022-11-15T10:57:37.491Z,98239.00
2022-11-15T11:00:33.943Z,98228.00
2022-11-15T11:03:41.199Z,98225.00
2022-11-15T11:06:29.890Z,98227.00
2022-11-15T11:09:37.721Z,98221.00
2022-11-15T11:12:34.632Z,98216.00
2022-11-15T11:15:28.992Z,98212.00
2022-11-15T11:18:48.509Z,98196.00
2022-11-15T11:21:47.906Z,98195.00
2022-11-15T11:24:49.002Z,98191.00
2022-11-15T11:28:06.674Z,98190.00
2022-11-15T11:31:13.382Z,98195.00
2022-11-15T11:34:20.878Z,98186.00
2022-11-15T11:37:30.507Z,98181.00
2022-11-15T11:40:31.282Z,98185.00
2022-11-15T11:43:46.441Z,98177.00
2022-11-15T11:47:19.724Z,98159.00
2022-11-15T11:50:21.823Z,98172.00
2022-11-15T11:53:49.636Z,98166.00
2022-11-15T11:56:43.712Z,98161.00
2022-11-15T12:00:00.947Z,98147.00
2022-11-15T12:03:19.565Z,98148.00
2022-11-15T12:06:51.968Z,98145.00
2022-11-15T12:10:06.767Z,98132.00
2022-11-15T12:13:11.469Z,98119.00
2022-11-15T12:16:18.553Z,98109.00
2022-11-15T12:19:06.318Z,98111.00
2022-11-15T12:22:40.100Z,98120.00
2022-11-15T12:25:46.946Z,98124.00
2022-11-15T12:29:05.992Z,98107.00
2022-11-15T12:32:00.915Z,98097.00
2022-11-15T12:34:51.276Z,98099.00
2022-11-15T12:37:45.083Z,98094.00
2022-11-15T12:41:28.597Z,98089.00
2022-11-15T12:44:50.973Z,98082.00
2022-11-15T12:47:38.431Z,98069.00
2022-11-15T12:50:57.314Z,98064.00
2022-11-15T12:53:44.843Z,98069.00
2022-11-15T12:56:33.046Z,98067.00
2022-11-15T12:59:56.177Z,98065.00
2022-11-15T13:02:46.798Z,98059.00
2022-11-15T13:05:36.961Z,98050.00
2022-11-15T13:08:45.105Z,98051.00
2022-11-15T13:12:02.841Z,98049.00
2022-11-15T13:15:13.425Z,98042.00
2022-11-15T13:18:30.649Z,98031.00
2022-11-15T13:21:44.002Z,98026.00
2022-11-15T13:24:31.507Z,98027.00
2022-11-15T13:27:21.494Z,98026.00
2022-11-15T13:30:32.115Z,98015.00
2022-11-15T13:33:37.985Z,98011.00
2022-11-15T13:36:35.417Z,98013.00
2022-11-15T13:39:35.157Z,98012.00
2022-11-15T13:42:22.800Z,98006.00
2022-11-15T13:45:18.236Z,98006.00
2022-11-15T13:48:07.359Z,98013.00
2022-11-15T13:50:54.912Z,98015.00
2022-11-15T13:53:48.273Z,98008.00
2022-11-15T13:56:36.946Z,98006.00
2022-11-15T13:59:33.257Z,97998.00
2022-11-15T14:02:37.091Z,98008.00
2022-11-15T14:05:28.017Z,97994.00
2022-11-15T14:08:21.619Z,97988.00
2022-11-15T14:11:18.741Z,97989.00
2022-11-15T14:14:09.044Z,97999.00
2022-11-15T14:17:02.290Z,97989.00
2022-11-15T14:19:50.316Z,97990.00
2022-11-15T14:22:38.927Z,97987.00
2022-11-15T14:25:36.716Z,97993.00
2022-11-15T14:28:24.276Z,97986.00
2022-11-15T14:31:14.271Z,97978.00
2022-11-15T14:34:01.747Z,97982.00
2022-11-15T14:36:49.672Z,97987.00
2022-11-15T14:39:37.135Z,97982.00
2022-11-15T14:42:26.125Z,97981.00
2022-11-15T14:45:22.901Z,97971.00
2022-11-15T14:48:10.778Z,97973.00
2022-11-15T14:50:58.291Z,97972.00
2022-11-15T14:53:47.605Z,97964.00
2022-11-15T14:56:35.169Z,97972.00
2022-11-15T14:59:22.806Z,97965.00
2022-11-15T15:02:30.642Z,97960.00
2022-11-15T15:05:25.427Z,97947.00
2022-11-15T15:08:13.078Z,97943.00
2022-11-15T15:11:00.877Z,97945.00
2022-11-15T15:13:48.752Z,97946.00
2022-11-15T15:16:36.401Z,97947.00
2022-11-15T15:19:26.218Z,97946.00
2022-11-15T15:22:18.966Z,97945.00
2022-11-15T15:25:35.947Z,97941.00
2022-11-15T15:28:23.614Z,97949.00
2022-11-15T15:31:12.013Z,97946.00
2022-11-15T15:33:59.632Z,97948.00
2022-11-15T15:36:47.190Z,97951.00
2022-11-15T15:39:34.770Z,97950.00
2022-11-15T15:42:24.021Z,97952.00
2022-11-15T15:45:12.104Z,97947.00
2022-11-15T15:47:59.607Z,97942.00
2022-11-15T15:50:48.182Z,97927.00
2022-11-15T15:53:36.231Z,97943.00
2022-11-15T15:56:23.759Z,97945.00
2022-11-15T15:59:11.391Z,97944.00
2022-11-15T16:01:59.166Z,97954.00
2022-11-15T16:04:46.836Z,97949.00
2022-11-15T16:07:34.370Z,97952.00
2022-11-15T16:10:29.698Z,97958.00
2022-11-15T16:13:18.580Z,97954.00
2022-11-15T16:16:13.573Z,97960.00
2022-11-15T16:19:01.876Z,97944.00
2022-11-15T16:21:49.792Z,97935.00
2022-11-15T16:24:37.312Z,97935.00
2022-11-15T16:27:25.562Z,97937.00
2022-11-15T16:30:17.744Z,97936.00
2022-11-15T16:33:05.659Z,97934.00
2022-11-15T16:35:53.376Z,97933.00
2022-11-15T16:38:40.862Z,97933.00
2022-11-15T16:41:28.488Z,97936.00
2022-11-15T16:44:16.277Z,97927.00
2022-11-15T16:47:07.171Z,97921.00
2022-11-15T16:49:54.577Z,97924.00
2022-11-15T16:52:42.138Z,97925.00
2022-11-15T16:55:30.660Z,97924.00
2022-11-15T16:58:18.447Z,97919.00
2022-11-15T17:01:06.110Z,97932.00
2022-11-15T17:03:55.062Z,97925.00
2022-11-15T17:06:47.254Z,97929.00
2022-11-15T17:09:35.136Z,97927.00
2022-11-15T17:12:22.607Z,97925.00
2022-11-15T17:15:13.722Z,97919.00
2022-11-15T17:18:01.208Z,97919.00
2022-11-15T17:20:48.701Z,97920.00
2022-11-15T17:23:36.457Z,97920.00
2022-11-15T17:26:30.334Z,97921.00
2022-11-15T17:29:18.952Z,97915.00
2022-11-15T17:32:06.402Z,97920.00
2022-11-15T17:34:53.941Z,97911.00
2022-11-15T17:37:41.406Z,97920.00
2022-11-15T17:40:28.859Z,97908.00
2022-11-15T17:43:16.908Z,97904.00
2022-11-15T17:46:12.526Z,97895.00
2022-11-15T17:49:00.142Z,97897.00
2022-11-15T17:51:50.157Z,97898.00
2022-11-15T17:54:37.923Z,97898.00
2022-11-15T17:57:25.470Z,97887.00
2022-11-15T18:00:13.787Z,97886.00
2022-11-15T18:03:01.193Z,97886.00
2022-11-15T18:05:48.637Z,97891.00
2022-11-15T18:08:38.212Z,97881.00
2022-11-15T18:11:33.492Z,97874.00
2022-11-15T18:14:21.815Z,97875.00
2022-11-15T18:17:09.836Z,97877.00
2022-11-15T18:19:57.515Z,97878.00
2022-11-15T18:22:45.116Z,97873.00
2022-11-15T18:25:32.734Z,97880.00
2022-11-15T18:28:20.498Z,97876.00
2022-11-15T18:31:29.116Z,97887.00
2022-11-15T18:34:18.071Z,97885.00
2022-11-15T18:37:05.727Z,97887.00
2022-11-15T18:39:54.290Z,97888.00
2022-11-15T18:42:41.827Z,97889.00
2022-11-15T18:45:29.361Z,97885.00
2022-11-15T18:48:16.834Z,97890.00
2022-11-15T18:51:11.030Z,97888.00
2022-11-15T18:54:01.607Z,97876.00
2022-11-15T18:56:49.126Z,97874.00
2022-11-15T18:59:36.618Z,97866.00
2022-11-15T19:02:24.468Z,97873.00
2022-11-15T19:05:13.050Z,97876.00
2022-11-15T19:08:00.582Z,97872.00
2022-11-15T19:10:47.961Z,97863.00
2022-11-15T19:13:35.822Z,97857.00
2022-11-15T19:16:25.277Z,97862.00
2022-11-15T19:19:17.047Z,97857.00
2022-11-15T19:22:04.512Z,97860.00
2022-11-15T19:24:51.998Z,97863.00
2022-11-15T19:27:39.573Z,97858.00
2022-11-15T19:30:27.187Z,97863.00
2022-11-15T19:33:14.811Z,97864.00
2022-11-15T19:36:05.805Z,97862.00
2022-11-15T19:38:55.483Z,97868.00
2022-11-15T19:41:44.651Z,97863.00
2022-11-15T19:44:32.143Z,97858.00
2022-11-15T19:47:19.635Z,97851.00
2022-11-15T19:50:07.711Z,97849.00
2022-11-15T19:52:55.167Z,97854.00
2022-11-15T19:55:43.399Z,97851.00
2022-11-15T19:58:32.075Z,97849.00
2022-11-15T20:01:26.218Z,97861.00
2022-11-15T20:04:13.800Z,97858.00
2022-11-15T20:07:01.517Z,97856.00
2022-11-15T20:09:49.178Z,97860.00
2022-11-15T20:12:36.686Z,97860.00
2022-11-15T20:15:24.205Z,97858.00
2022-11-15T20:18:11.667Z,97851.00
2022-11-15T20:20:59.817Z,97852.00
2022-11-15T20:23:48.162Z,97837.00
2022-11-15T20:26:35.921Z,97833.00
2022-11-15T20:29:24.047Z,97840.00
2022-11-15T20:32:12.288Z,97844.00
2022-11-15T20:34:59.826Z,97839.00
2022-11-15T20:37:47.387Z,97842.00
2022-11-15T20:40:35.153Z,97844.00
2022-11-15T20:43:22.647Z,97844.00
2022-11-15T20:46:12.289Z,97836.00
2022-11-15T20:49:00.066Z,97821.00
2022-11-15T20:51:47.684Z,97815.00
2022-11-15T20:54:35.527Z,97813.00
2022-11-15T20:57:22.962Z,97815.00
2022-11-15T21:00:11.507Z,97808.00
2022-11-15T21:02:58.965Z,97803.00
2022-11-15T21:05:46.386Z,97799.00
2022-11-15T21:08:53.928Z,97795.00
2022-11-15T21:12:00.640Z,97794.00
2022-11-15T21:14:49.133Z,97790.00
2022-11-15T21:17:36.631Z,97791.00
2022-11-15T21:20:24.126Z,97799.00
2022-11-15T21:23:12.616Z,97800.00
2022-11-15T21:26:00.127Z,97791.00
2022-11-15T21:28:47.567Z,97793.00
2022-11-15T21:31:35.337Z,97782.00
2022-11-15T21:34:22.893Z,97782.00
2022-11-15T21:37:11.093Z,97773.00
2022-11-15T21:39:58.538Z,97776.00
2022-11-15T21:42:45.976Z,97780.00
2022-11-15T21:45:33.482Z,97771.00
2022-11-15T21:48:21.026Z,97758.00
2022-11-15T21:51:12.189Z,97758.00
2022-11-15T21:54:00.565Z,97744.00
2022-11-15T21:56:48.063Z,97736.00
2022-11-15T21:59:55.432Z,97743.00
2022-11-15T22:02:42.867Z,97743.00
2022-11-15T22:05:30.332Z,97738.00
2022-11-15T22:08:17.787Z,97742.00
2022-11-15T22:11:05.750Z,97739.00
2022-11-15T22:13:53.307Z,97733.00
2022-11-15T22:16:41.189Z,97736.00
2022-11-15T22:19:28.717Z,97745.00
2022-11-15T22:22:16.228Z,97736.00
2022-11-15T22:25:04.162Z,97733.00
2022-11-15T22:27:53.413Z,97724.00
2022-11-15T22:30:41.232Z,97712.00
2022-11-15T22:33:31.917Z,97716.00
2022-11-15T22:36:19.517Z,97710.00
2022-11-15T22:39:07.147Z,97712.00
2022-11-15T22:41:55.248Z,97715.00
2022-11-15T22:44:42.729Z,97712.00
2022-11-15T22:47:30.231Z,97715.00
2022-11-15T22:50:18.582Z,97706.00
2022-11-15T22:53:06.093Z,97709.00
2022-11-15T22:55:57.889Z,97704.00
2022-11-15T22:58:45.447Z,97703.00
2022-11-15T23:01:32.964Z,97696.00
2022-11-15T23:04:20.607Z,97695.00
2022-11-15T23:07:08.268Z,97688.00
2022-11-15T23:10:15.757Z,97674.00
2022-11-15T23:13:19.092Z,97675.00
2022-11-15T23:16:22.763Z,97673.00
2022-11-15T23:19:12.972Z,97667.00
2022-11-15T23:22:19.337Z,97673.00
2022-11-15T23:25:07.322Z,97665.00
2022-11-15T23:27:54.855Z,97660.00
2022-11-15T23:31:01.232Z,97652.00
2022-11-15T23:33:57.854Z,97648.00
2022-11-15T23:36:45.534Z,97643.00
2022-11-15T23:39:33.383Z,97640.00
2022-11-15T23:42:20.932Z,97634.00
2022-11-15T23:45:08.867Z,97623.00
2022-11-15T23:48:01.143Z,97622.00
2022-11-15T23:50:49.452Z,97621.00
2022-11-15T23:53:37.549Z,97607.00
2022-11-15T23:56:26.078Z,97611.00
2022-11-15T23:59:13.634Z,97606.00
